Time;durP1;ratioP1;P1;durP2;ratioP2;P2;SDS_P1;SDS_P2;PMS_P1;PMS_P2;Temp;Humidity;BMP_temperature;BMP_pressure;BME280_temperature;BME280_humidity;BME280_pressure;Samples;Min_cycle;Max_cycle;Signal;HPM_P1;HPM_P2
2024/01/04 00:00:13;;;;;;;;;;;;;;;;;;5073425;28;19928;-68
2024/01/04 00:02:40;;;;;;;;;;;;;;;;;;5068664;28;19928;-68
2024/01/04 00:05:07;;;;;;;;;;;;;;;;;;5071263;28;20021;-67
2024/01/04 00:07:34;;;;;;;;;;;;;;;;;;5064094;28;19925;-69
2024/01/04 00:10:01;;;;;;;;;;;;;;;;;;5061947;28;19931;-70
2024/01/04 00:12:29;;;;;;;;;;;;;;;;;;5070297;28;19933;-67
2024/01/04 00:14:56;;;;;;;;;;;;;;;;;;5065119;28;19986;-68
2024/01/04 00:17:23;;;;;;;;;;;;;;;;;;5064003;28;19986;-67
2024/01/04 00:19:50;;;;;;;;;;;;;;;;;;5054651;28;19925;-68
2024/01/04 00:22:17;;;;;;;;;;;;;;;;;;5067540;28;19932;-68
2024/01/04 00:24:44;;;;;;;;;;;;;;;;;;5062568;28;19978;-69
2024/01/04 00:27:11;;;;;;;;;;;;;;;;;;5054423;28;19990;-70
2024/01/04 00:29:38;;;;;;;;;;;;;;;;;;5070725;28;19987;-70
2024/01/04 00:32:05;;;;;;;;;;;;;;;;;;5072364;28;19928;-69
2024/01/04 00:34:32;;;;;;;;;;;;;;;;;;5060693;28;19925;-70
2024/01/04 00:36:59;;;;;;;;;;;;;;;;;;5069603;28;19977;-70
2024/01/04 00:39:26;;;;;;;;;;;;;;;;;;5061769;28;20395;-69
2024/01/04 00:41:53;;;;;;;;;;;;;;;;;;5070491;28;19954;-70
2024/01/04 00:44:20;;;;;;;;;;;;;;;;;;5068155;28;20011;-69
2024/01/04 00:46:47;;;;;;;;;;;;;;;;;;5067664;28;19924;-69
2024/01/04 00:49:14;;;;;;;;;;;;;;;;;;5061364;28;19978;-69
2024/01/04 00:51:41;;;;;;;;;;;;;;;;;;5058070;28;19929;-67
2024/01/04 00:54:08;;;;;;;;;;;;;;;;;;5072736;28;20007;-69
2024/01/04 00:56:36;;;;;;;;;;;;;;;;;;5064782;28;19932;-67
2024/01/04 00:59:03;;;;;;;;;;;;;;;;;;5060512;28;19968;-67
2024/01/04 01:01:30;;;;;;;;;;;;;;;;;;5060642;28;19924;-67
2024/01/04 01:03:57;;;;;;;;;;;;;;;;;;5066096;28;19925;-67
2024/01/04 01:06:24;;;;;;;;;;;;;;;;;;5065554;28;20509;-67
2024/01/04 01:08:51;;;;;;;;;;;;;;;;;;5059045;28;19925;-67
2024/01/04 01:11:18;;;;;;;;;;;;;;;;;;5071275;28;20405;-67
2024/01/04 01:13:45;;;;;;;;;;;;;;;;;;5066343;28;19928;-69
2024/01/04 01:16:12;;;;;;;;;;;;;;;;;;5064439;28;20349;-67
2024/01/04 01:18:39;;;;;;;;;;;;;;;;;;5069605;28;19925;-67
2024/01/04 01:21:06;;;;;;;;;;;;;;;;;;5067482;28;19986;-68
2024/01/04 01:23:33;;;;;;;;;;;;;;;;;;5060248;28;19964;-67
2024/01/04 01:26:02;;;;;;;;;;;;;;;;;;5064755;28;19986;-67
2024/01/04 01:28:29;;;;;;;;;;;;;;;;;;5068733;28;19930;-67
2024/01/04 01:30:56;;;;;;;;;;;;;;;;;;5058412;28;20046;-68
2024/01/04 01:33:24;;;;;;;;;;;;;;;;;;5055968;28;19924;-68
2024/01/04 01:35:52;;;;;;;;;;;;;;;;;;5068386;28;19928;-68
2024/01/04 01:38:19;;;;;;;;;;;;;;;;;;5056340;28;20015;-69
2024/01/04 01:40:46;;;;;;;;;;;;;;;;;;5055297;28;20380;-68
2024/01/04 01:43:13;;;;;;;;;;;;;;;;;;5065115;28;20383;-68
2024/01/04 01:45:41;;;;;;;;;;;;;;;;;;5067486;28;19971;-68
2024/01/04 01:48:08;;;;;;;;;;;;;;;;;;5058104;28;19986;-68
2024/01/04 01:50:35;;;;;;;;;;;;;;;;;;5066757;28;19987;-68
2024/01/04 01:53:02;;;;;;;;;;;;;;;;;;5067429;28;19925;-67
2024/01/04 01:55:29;;;;;;;;;;;;;;;;;;5070830;28;20343;-67
2024/01/04 01:57:56;;;;;;;;;;;;;;;;;;5069768;28;19978;-67
2024/01/04 02:00:23;;;;;;;;;;;;;;;;;;5071637;28;20001;-67
2024/01/04 02:02:50;;;;;;;;;;;;;;;;;;5067462;28;19928;-67
2024/01/04 02:05:18;;;;;;;;;;;;;;;;;;5058784;28;20256;-68
2024/01/04 02:07:45;;;;;;;;;;;;;;;;;;5070812;28;19931;-66
2024/01/04 02:10:12;;;;;;;;;;;;;;;;;;5071352;28;20283;-68
2024/01/04 02:12:39;;;;;;;;;;;;;;;;;;5068788;28;19947;-68
2024/01/04 02:15:07;;;;;;;;;;;;;;;;;;5063910;28;19925;-67
2024/01/04 02:17:34;;;;;;;;;;;;;;;;;;5063061;28;19925;-68
2024/01/04 02:20:01;;;;;;;;;;;;;;;;;;5057565;28;19928;-68
2024/01/04 02:22:30;;;;;;;;;;;;;;;;;;5062784;28;19925;-69
2024/01/04 02:24:57;;;;;;;;;;;;;;;;;;5063733;28;19971;-67
2024/01/04 02:27:24;;;;;;;;;;;;;;;;;;5070710;28;19924;-68
2024/01/04 02:29:51;;;;;;;;;;;;;;;;;;5067385;28;19924;-67
2024/01/04 02:32:18;;;;;;;;;;;;;;;;;;5058212;28;19924;-68
2024/01/04 02:34:45;;;;;;;;;;;;;;;;;;5067517;28;19970;-69
2024/01/04 02:37:12;;;;;;;;;;;;;;;;;;5069633;28;19924;-69
2024/01/04 02:39:39;;;;;;;;;;;;;;;;;;5063907;28;19979;-68
2024/01/04 02:42:06;;;;;;;;;;;;;;;;;;5063176;28;19972;-68
2024/01/04 02:44:33;;;;;;;;;;;;;;;;;;5057985;28;19959;-68
2024/01/04 02:47:00;;;;;;;;;;;;;;;;;;5067668;28;19928;-68
2024/01/04 02:49:27;;;;;;;;;;;;;;;;;;5060196;28;19929;-68
2024/01/04 02:51:54;;;;;;;;;;;;;;;;;;5067074;28;19929;-69
2024/01/04 02:54:22;;;;;;;;;;;;;;;;;;5071794;28;19978;-69
2024/01/04 02:56:49;;;;;;;;;;;;;;;;;;5074880;28;19924;-68
2024/01/04 02:59:16;;;;;;;;;;;;;;;;;;5070622;28;19978;-68
2024/01/04 03:01:48;;;;;;;;;;;;;;;;;;5074618;28;19924;-69
2024/01/04 03:04:15;;;;;;;;;;;;;;;;;;5072563;28;19987;-69
2024/01/04 03:06:42;;;;;;;;;;;;;;;;;;5059205;28;19978;-69
2024/01/04 03:09:09;;;;;;;;;;;;;;;;;;5067329;28;19990;-68
2024/01/04 03:11:36;;;;;;;;;;;;;;;;;;5071273;28;19924;-68
2024/01/04 03:14:03;;;;;;;;;;;;;;;;;;5073888;28;20422;-68
2024/01/04 03:16:31;;;;;;;;;;;;;;;;;;5071298;28;19967;-68
2024/01/04 03:18:58;;;;;;;;;;;;;;;;;;5066309;28;19924;-68
2024/01/04 03:21:25;;;;;;;;;;;;;;;;;;5071090;28;19968;-68
2024/01/04 03:23:52;;;;;;;;;;;;;;;;;;5069200;28;19924;-68
2024/01/04 03:26:19;;;;;;;;;;;;;;;;;;5062180;28;19960;-68
2024/01/04 03:28:46;;;;;;;;;;;;;;;;;;5058526;28;19986;-68
2024/01/04 03:31:14;;;;;;;;;;;;;;;;;;5067254;28;19925;-68
2024/01/04 03:33:41;;;;;;;;;;;;;;;;;;5070014;28;19986;-68
2024/01/04 03:36:09;;;;;;;;;;;;;;;;;;5067284;28;20399;-68
2024/01/04 03:38:36;;;;;;;;;;;;;;;;;;5070232;28;19925;-68
2024/01/04 03:41:03;;;;;;;;;;;;;;;;;;5062686;28;19928;-68
2024/01/04 03:43:30;;;;;;;;;;;;;;;;;;5061505;28;20019;-68
2024/01/04 03:45:57;;;;;;;;;;;;;;;;;;5071101;28;20395;-68
2024/01/04 03:48:24;;;;;;;;;;;;;;;;;;5070136;28;19924;-68
2024/01/04 03:50:51;;;;;;;;;;;;;;;;;;5073174;28;19924;-68
2024/01/04 03:53:18;;;;;;;;;;;;;;;;;;5070521;28;19987;-68
2024/01/04 03:55:45;;;;;;;;;;;;;;;;;;5066120;28;19924;-68
2024/01/04 03:58:12;;;;;;;;;;;;;;;;;;5058432;28;19932;-68
2024/01/04 04:00:39;;;;;;;;;;;;;;;;;;5071092;28;19947;-68
2024/01/04 04:03:06;;;;;;;;;;;;;;;;;;5070901;28;19978;-68
2024/01/04 04:05:33;;;;;;;;;;;;;;;;;;5072178;28;19928;-68
2024/01/04 04:08:01;;;;;;;;;;;;;;;;;;5066472;28;19924;-69
2024/01/04 04:10:28;;;;;;;;;;;;;;;;;;5062043;28;20394;-69
2024/01/04 04:12:55;;;;;;;;;;;;;;;;;;5057558;28;19979;-68
2024/01/04 04:15:22;;;;;;;;;;;;;;;;;;5072310;28;20284;-68
2024/01/04 04:17:49;;;;;;;;;;;;;;;;;;5073026;28;19950;-68
2024/01/04 04:20:16;;;;;;;;;;;;;;;;;;5070856;28;19928;-68
2024/01/04 04:22:43;;;;;;;;;;;;;;;;;;5072542;28;19951;-68
2024/01/04 04:25:10;;;;;;;;;;;;;;;;;;5071294;28;19995;-68
2024/01/04 04:27:37;;;;;;;;;;;;;;;;;;5071916;28;19985;-68
2024/01/04 04:30:05;;;;;;;;;;;;;;;;;;5067509;28;19971;-68
2024/01/04 04:32:32;;;;;;;;;;;;;;;;;;5068285;28;19986;-68
2024/01/04 04:34:59;;;;;;;;;;;;;;;;;;5070807;28;19924;-68
2024/01/04 04:37:26;;;;;;;;;;;;;;;;;;5063348;28;19925;-68
2024/01/04 04:39:53;;;;;;;;;;;;;;;;;;5063579;28;19924;-68
2024/01/04 04:42:20;;;;;;;;;;;;;;;;;;5067205;28;20460;-68
2024/01/04 04:44:47;;;;;;;;;;;;;;;;;;5062724;28;20395;-69
2024/01/04 04:47:14;;;;;;;;;;;;;;;;;;5059243;28;19971;-68
2024/01/04 04:49:41;;;;;;;;;;;;;;;;;;5065757;28;19928;-68
2024/01/04 04:52:08;;;;;;;;;;;;;;;;;;5062684;28;19925;-68
2024/01/04 04:54:35;;;;;;;;;;;;;;;;;;5069495;28;19983;-68
2024/01/04 04:57:04;;;;;;;;;;;;;;;;;;5067846;28;19924;-68
2024/01/04 04:59:31;;;;;;;;;;;;;;;;;;5060255;28;19924;-68
2024/01/04 05:01:58;;;;;;;;;;;;;;;;;;5063992;28;19990;-67
2024/01/04 05:04:25;;;;;;;;;;;;;;;;;;5070060;28;19932;-68
2024/01/04 05:06:52;;;;;;;;;;;;;;;;;;5067469;28;19928;-67
2024/01/04 05:09:19;;;;;;;;;;;;;;;;;;5062605;28;19978;-68
2024/01/04 05:11:46;;;;;;;;;;;;;;;;;;5071638;28;19977;-68
2024/01/04 05:14:13;;;;;;;;;;;;;;;;;;5068057;28;19928;-68
2024/01/04 05:16:41;;;;;;;;;;;;;;;;;;5064602;28;20004;-67
2024/01/04 05:19:08;;;;;;;;;;;;;;;;;;5068187;28;19978;-68
2024/01/04 05:21:35;;;;;;;;;;;;;;;;;;5070474;28;19924;-67
2024/01/04 05:24:02;;;;;;;;;;;;;;;;;;5064129;28;19993;-68
2024/01/04 05:26:29;;;;;;;;;;;;;;;;;;5062391;28;19924;-68
2024/01/04 05:28:56;;;;;;;;;;;;;;;;;;5064190;28;19925;-68
2024/01/04 05:31:23;;;;;;;;;;;;;;;;;;5053705;28;19929;-68
2024/01/04 05:33:50;;;;;;;;;;;;;;;;;;5069380;28;19985;-68
2024/01/04 05:36:17;;;;;;;;;;;;;;;;;;5066524;28;19928;-68
2024/01/04 05:38:44;;;;;;;;;;;;;;;;;;5065721;28;19925;-68
2024/01/04 05:41:11;;;;;;;;;;;;;;;;;;5064860;28;19925;-68
2024/01/04 05:43:38;;;;;;;;;;;;;;;;;;5061487;28;19924;-68
2024/01/04 05:46:05;;;;;;;;;;;;;;;;;;5058687;28;19954;-68
2024/01/04 05:48:32;;;;;;;;;;;;;;;;;;5068216;28;19950;-68
2024/01/04 05:50:59;;;;;;;;;;;;;;;;;;5068987;28;19924;-68
2024/01/04 05:53:26;;;;;;;;;;;;;;;;;;5070085;28;19932;-68
2024/01/04 05:55:53;;;;;;;;;;;;;;;;;;5061865;28;19970;-68
2024/01/04 05:58:20;;;;;;;;;;;;;;;;;;5070569;28;19924;-68
2024/01/04 06:00:48;;;;;;;;;;;;;;;;;;5069746;28;19960;-68
2024/01/04 06:03:16;;;;;;;;;;;;;;;;;;5070186;28;19979;-68
2024/01/04 06:05:43;;;;;;;;;;;;;;;;;;5068180;28;19924;-68
2024/01/04 06:08:11;;;;;;;;;;;;;;;;;;5069187;28;19974;-68
2024/01/04 06:10:38;;;;;;;;;;;;;;;;;;5059629;28;19971;-68
2024/01/04 06:13:07;;;;;;;;;;;;;;;;;;5051717;28;19924;-68
2024/01/04 06:15:34;;;;;;;;;;;;;;;;;;5055695;28;19932;-68
2024/01/04 06:18:01;;;;;;;;;;;;;;;;;;5068856;28;19925;-68
2024/01/04 06:20:28;;;;;;;;;;;;;;;;;;5064359;28;19924;-69
2024/01/04 06:22:55;;;;;;;;;;;;;;;;;;5066150;28;19986;-68
2024/01/04 06:25:22;;;;;;;;;;;;;;;;;;5072220;28;19925;-68
2024/01/04 06:27:50;;;;;;;;;;;;;;;;;;5072325;28;19986;-68
2024/01/04 06:30:17;;;;;;;;;;;;;;;;;;5072122;28;19925;-68
2024/01/04 06:32:44;;;;;;;;;;;;;;;;;;5070962;28;19925;-67
2024/01/04 06:35:11;;;;;;;;;;;;;;;;;;5073730;28;20307;-68
2024/01/04 06:37:38;;;;;;;;;;;;;;;;;;5066802;28;19978;-68
2024/01/04 06:40:08;;;;;;;;;;;;;;;;;;5061123;28;19929;-68
2024/01/04 06:42:36;;;;;;;;;;;;;;;;;;5067555;28;19936;-68
2024/01/04 06:45:03;;;;;;;;;;;;;;;;;;5066529;28;19928;-68
2024/01/04 06:47:31;;;;;;;;;;;;;;;;;;5066679;28;19971;-68
2024/01/04 06:49:58;;;;;;;;;;;;;;;;;;5073488;28;20020;-68
2024/01/04 06:52:25;;;;;;;;;;;;;;;;;;5074516;28;19970;-68
2024/01/04 06:54:52;;;;;;;;;;;;;;;;;;5066381;28;19928;-68
2024/01/04 06:57:19;;;;;;;;;;;;;;;;;;5061899;28;19925;-68
2024/01/04 06:59:46;;;;;;;;;;;;;;;;;;5068268;28;19925;-68
2024/01/04 07:02:13;;;;;;;;;;;;;;;;;;5070203;28;19931;-68
2024/01/04 07:04:40;;;;;;;;;;;;;;;;;;5073751;28;19979;-69
2024/01/04 07:07:07;;;;;;;;;;;;;;;;;;5073490;28;20001;-68
2024/01/04 07:09:34;;;;;;;;;;;;;;;;;;5062929;28;20080;-69
2024/01/04 07:12:02;;;;;;;;;;;;;;;;;;5068766;28;19928;-69
2024/01/04 07:14:29;;;;;;;;;;;;;;;;;;5069676;28;19931;-69
2024/01/04 07:16:56;;;;;;;;;;;;;;;;;;5066377;28;20440;-69
2024/01/04 07:19:23;;;;;;;;;;;;;;;;;;5057555;28;20025;-68
2024/01/04 07:21:50;;;;;;;;;;;;;;;;;;5069604;28;19932;-68
2024/01/04 07:24:17;;;;;;;;;;;;;;;;;;5069114;28;20614;-68
2024/01/04 07:26:44;;;;;;;;;;;;;;;;;;5056907;28;19990;-69
2024/01/04 07:29:11;;;;;;;;;;;;;;;;;;5053598;28;20367;-68
2024/01/04 07:31:38;;;;;;;;;;;;;;;;;;5069771;28;19924;-67
2024/01/04 07:34:06;;;;;;;;;;;;;;;;;;5066516;28;20020;-68
2024/01/04 07:36:35;;;;;;;;;;;;;;;;;;5063764;28;19995;-67
2024/01/04 07:39:02;;;;;;;;;;;;;;;;;;5061639;28;19932;-71
2024/01/04 07:41:30;;;;;;;;;;;;;;;;;;5056556;28;19972;-68
2024/01/04 07:43:57;;;;;;;;;;;;;;;;;;5055646;28;19956;-68
2024/01/04 07:46:24;;;;;;;;;;;;;;;;;;5067552;28;19929;-68
2024/01/04 07:48:51;;;;;;;;;;;;;;;;;;5065141;28;19924;-68
2024/01/04 07:51:18;;;;;;;;;;;;;;;;;;5064411;28;19951;-68
2024/01/04 07:53:45;;;;;;;;;;;;;;;;;;5068099;28;19931;-68
2024/01/04 07:56:12;;;;;;;;;;;;;;;;;;5066608;28;19987;-68
2024/01/04 07:58:40;;;;;;;;;;;;;;;;;;5059173;28;20050;-67
2024/01/04 08:01:07;;;;;;;;;;;;;;;;;;5064422;28;19929;-68
2024/01/04 08:03:34;;;;;;;;;;;;;;;;;;5072839;28;20022;-69
2024/01/04 08:06:01;;;;;;;;;;;;;;;;;;5070704;28;19970;-68
2024/01/04 08:08:28;;;;;;;;;;;;;;;;;;5065177;28;19932;-68
2024/01/04 08:10:55;;;;;;;;;;;;;;;;;;5066863;28;20007;-69
2024/01/04 08:13:22;;;;;;;;;;;;;;;;;;5062540;28;19925;-68
2024/01/04 08:15:50;;;;;;;;;;;;;;;;;;5062236;28;19925;-71
2024/01/04 08:18:17;;;;;;;;;;;;;;;;;;5067160;28;19929;-71
2024/01/04 08:20:45;;;;;;;;;;;;;;;;;;5058683;28;19928;-71
2024/01/04 08:23:12;;;;;;;;;;;;;;;;;;5069138;28;19947;-73
2024/01/04 08:25:39;;;;;;;;;;;;;;;;;;5069451;28;19936;-71
2024/01/04 08:28:06;;;;;;;;;;;;;;;;;;5067757;28;19935;-72
2024/01/04 08:30:33;;;;;;;;;;;;;;;;;;5069939;28;19924;-71
2024/01/04 08:33:01;;;;;;;;;;;;;;;;;;5066532;28;19930;-71
2024/01/04 08:35:28;;;;;;;;;;;;;;;;;;5063237;28;19931;-72
2024/01/04 08:37:55;;;;;;;;;;;;;;;;;;5067082;28;19994;-72
2024/01/04 08:40:22;;;;;;;;;;;;;;;;;;5060079;28;19982;-71
2024/01/04 08:42:49;;;;;;;;;;;;;;;;;;5062182;28;20067;-72
2024/01/04 08:45:16;;;;;;;;;;;;;;;;;;5062644;28;19931;-72
2024/01/04 08:47:43;;;;;;;;;;;;;;;;;;5060519;28;19970;-72
2024/01/04 08:50:11;;;;;;;;;;;;;;;;;;5062815;28;19924;-72
2024/01/04 08:52:38;;;;;;;;;;;;;;;;;;5069182;28;20343;-71
2024/01/04 08:55:07;;;;;;;;;;;;;;;;;;5067287;28;19925;-72
2024/01/04 08:57:34;;;;;;;;;;;;;;;;;;5065548;28;19932;-72
2024/01/04 09:00:01;;;;;;;;;;;;;;;;;;5067164;28;19928;-71
2024/01/04 09:02:28;;;;;;;;;;;;;;;;;;5065751;28;19925;-72
2024/01/04 09:04:55;;;;;;;;;;;;;;;;;;5065250;28;19956;-71
2024/01/04 09:07:22;;;;;;;;;;;;;;;;;;5063935;28;19924;-71
2024/01/04 09:09:49;;;;;;;;;;;;;;;;;;5065675;28;20339;-72
2024/01/04 09:12:16;;;;;;;;;;;;;;;;;;5067890;28;19925;-71
2024/01/04 09:14:45;;;;;;;;;;;;;;;;;;5072968;22;19982;-71
2024/01/04 09:17:13;;;;;;;;;;;;;;;;;;5070092;28;20015;-71
2024/01/04 09:19:40;;;;;;;;;;;;;;;;;;5067124;28;19937;-72
2024/01/04 09:22:08;;;;;;;;;;;;;;;;;;5063565;28;20007;-74
2024/01/04 09:24:35;;;;;;;;;;;;;;;;;;5065954;28;19928;-73
2024/01/04 09:27:04;;;;;;;;;;;;;;;;;;5062839;28;19924;-75
2024/01/04 09:29:32;;;;;;;;;;;;;;;;;;5067528;28;20020;-75
2024/01/04 09:32:01;;;;;;;;;;;;;;;;;;5064610;28;20026;-73
2024/01/04 09:34:28;;;;;;;;;;;;;;;;;;5068214;28;20352;-73
2024/01/04 09:36:55;;;;;;;;;;;;;;;;;;5070435;28;19929;-74
2024/01/04 09:39:22;;;;;;;;;;;;;;;;;;5065276;28;19924;-74
2024/01/04 09:41:49;;;;;;;;;;;;;;;;;;5067112;28;19937;-74
2024/01/04 09:44:16;;;;;;;;;;;;;;;;;;5065977;28;20330;-73
2024/01/04 09:46:43;;;;;;;;;;;;;;;;;;5066045;28;19925;-74
2024/01/04 09:49:11;;;;;;;;;;;;;;;;;;5065943;28;19963;-72
2024/01/04 09:51:38;;;;;;;;;;;;;;;;;;5068442;28;19925;-71
2024/01/04 09:54:07;;;;;;;;;;;;;;;;;;5062985;28;19964;-70
2024/01/04 09:56:34;;;;;;;;;;;;;;;;;;5065230;28;19925;-73
2024/01/04 09:59:01;;;;;;;;;;;;;;;;;;5063159;28;19933;-72
2024/01/04 10:01:28;;;;;;;;;;;;;;;;;;5069635;28;20028;-71
2024/01/04 10:03:55;;;;;;;;;;;;;;;;;;5063098;28;19925;-73
2024/01/04 10:06:22;;;;;;;;;;;;;;;;;;5072203;28;19929;-72
2024/01/04 10:08:49;;;;;;;;;;;;;;;;;;5066466;28;19972;-72
2024/01/04 10:11:16;;;;;;;;;;;;;;;;;;5068334;28;20342;-71
2024/01/04 10:13:44;;;;;;;;;;;;;;;;;;5064370;28;19947;-72
2024/01/04 10:16:11;;;;;;;;;;;;;;;;;;5066589;28;20394;-71
2024/01/04 10:18:39;;;;;;;;;;;;;;;;;;5067094;28;19939;-72
2024/01/04 10:21:08;;;;;;;;;;;;;;;;;;5067514;28;20450;-72
2024/01/04 10:23:35;;;;;;;;;;;;;;;;;;5072798;28;19925;-71
2024/01/04 10:26:02;;;;;;;;;;;;;;;;;;5068875;28;19932;-72
2024/01/04 10:28:29;;;;;;;;;;;;;;;;;;5064105;28;19932;-72
2024/01/04 10:30:56;;;;;;;;;;;;;;;;;;5068805;28;19998;-72
2024/01/04 10:33:23;;;;;;;;;;;;;;;;;;5065761;28;20391;-72
2024/01/04 10:35:50;;;;;;;;;;;;;;;;;;5069991;28;20373;-72
2024/01/04 10:38:18;;;;;;;;;;;;;;;;;;5073869;28;19954;-72
2024/01/04 10:40:45;;;;;;;;;;;;;;;;;;5070028;28;19924;-72
2024/01/04 10:43:12;;;;;;;;;;;;;;;;;;5070570;28;19932;-71
2024/01/04 10:45:39;;;;;;;;;;;;;;;;;;5066557;28;19925;-72
2024/01/04 10:48:06;;;;;;;;;;;;;;;;;;5064004;28;19970;-72
2024/01/04 10:50:34;;;;;;;;;;;;;;;;;;5066983;28;19930;-71
2024/01/04 10:53:03;;;;;;;;;;;;;;;;;;5058750;28;19924;-72
2024/01/04 10:55:30;;;;;;;;;;;;;;;;;;5058057;28;19932;-72
2024/01/04 10:57:57;;;;;;;;;;;;;;;;;;5062395;28;20022;-72
2024/01/04 11:00:24;;;;;;;;;;;;;;;;;;5060905;28;20018;-72
2024/01/04 11:02:51;;;;;;;;;;;;;;;;;;5065268;28;19929;-72
2024/01/04 11:05:20;;;;;;;;;;;;;;;;;;5062607;28;19924;-72
2024/01/04 11:07:47;;;;;;;;;;;;;;;;;;5058281;28;19925;-72
2024/01/04 11:10:15;;;;;;;;;;;;;;;;;;5060006;28;20384;-74
2024/01/04 11:12:42;;;;;;;;;;;;;;;;;;5063065;28;20012;-71
2024/01/04 11:15:12;;;;;;;;;;;;;;;;;;5063254;28;19924;-73
2024/01/04 11:17:39;;;;;;;;;;;;;;;;;;5064043;28;19928;-72
2024/01/04 11:20:08;;;;;;;;;;;;;;;;;;5061651;28;19968;-71
2024/01/04 11:22:35;;;;;;;;;;;;;;;;;;5063974;28;19924;-71
2024/01/04 11:25:03;;;;;;;;;;;;;;;;;;5063684;28;19936;-72
2024/01/04 11:27:30;;;;;;;;;;;;;;;;;;5060579;28;19932;-72
2024/01/04 11:29:57;;;;;;;;;;;;;;;;;;5063801;28;20276;-71
2024/01/04 11:32:25;;;;;;;;;;;;;;;;;;5061169;28;19932;-70
2024/01/04 11:34:52;;;;;;;;;;;;;;;;;;5065957;28;20294;-71
2024/01/04 11:37:19;;;;;;;;;;;;;;;;;;5071805;28;19924;-71
2024/01/04 11:39:46;;;;;;;;;;;;;;;;;;5064428;28;19924;-73
2024/01/04 11:42:14;;;;;;;;;;;;;;;;;;5057511;28;20365;-72
2024/01/04 11:44:42;;;;;;;;;;;;;;;;;;5060663;28;19932;-71
2024/01/04 11:47:09;;;;;;;;;;;;;;;;;;5059632;28;21225;-72
2024/01/04 11:49:36;;;;;;;;;;;;;;;;;;5058637;28;19955;-73
2024/01/04 11:52:04;;;;;;;;;;;;;;;;;;5062535;28;19928;-72
2024/01/04 11:54:31;;;;;;;;;;;;;;;;;;5061959;28;19933;-73
2024/01/04 11:56:59;;;;;;;;;;;;;;;;;;5058632;28;19932;-73
2024/01/04 11:59:26;;;;;;;;;;;;;;;;;;5065087;28;19925;-73
2024/01/04 12:01:53;;;;;;;;;;;;;;;;;;5063359;28;20122;-73
2024/01/04 12:04:21;;;;;;;;;;;;;;;;;;5061459;28;20624;-73
2024/01/04 12:06:48;;;;;;;;;;;;;;;;;;5058148;28;19975;-72
2024/01/04 12:09:16;;;;;;;;;;;;;;;;;;5066590;28;20372;-72
2024/01/04 12:11:44;;;;;;;;;;;;;;;;;;5063597;28;20013;-72
2024/01/04 12:14:12;;;;;;;;;;;;;;;;;;5064989;28;19975;-72
2024/01/04 12:16:39;;;;;;;;;;;;;;;;;;5063693;28;19936;-71
2024/01/04 12:19:06;;;;;;;;;;;;;;;;;;5058804;28;19924;-71
2024/01/04 12:21:34;;;;;;;;;;;;;;;;;;5067854;28;19924;-72
2024/01/04 12:24:02;;;;;;;;;;;;;;;;;;5071466;28;19978;-71
2024/01/04 12:26:29;;;;;;;;;;;;;;;;;;5072224;28;20010;-71
2024/01/04 12:28:56;;;;;;;;;;;;;;;;;;5070717;28;20307;-72
2024/01/04 12:31:24;;;;;;;;;;;;;;;;;;5069949;28;19932;-70
2024/01/04 12:33:51;;;;;;;;;;;;;;;;;;5065292;28;20018;-70
2024/01/04 12:36:18;;;;;;;;;;;;;;;;;;5069315;28;19986;-71
2024/01/04 12:38:46;;;;;;;;;;;;;;;;;;5063562;28;19928;-71
2024/01/04 12:41:13;;;;;;;;;;;;;;;;;;5069415;28;19924;-71
2024/01/04 12:43:41;;;;;;;;;;;;;;;;;;5066778;28;19932;-71
2024/01/04 12:46:08;;;;;;;;;;;;;;;;;;5070625;28;19972;-71
2024/01/04 12:48:36;;;;;;;;;;;;;;;;;;5061880;28;20002;-71
2024/01/04 12:51:03;;;;;;;;;;;;;;;;;;5058935;28;19932;-70
2024/01/04 12:53:30;;;;;;;;;;;;;;;;;;5070483;28;19960;-71
2024/01/04 12:55:57;;;;;;;;;;;;;;;;;;5069397;28;19936;-73
2024/01/04 12:58:24;;;;;;;;;;;;;;;;;;5069881;28;19924;-74
2024/01/04 13:00:52;;;;;;;;;;;;;;;;;;5068803;28;19928;-72
2024/01/04 13:03:20;;;;;;;;;;;;;;;;;;5063687;28;20002;-74
2024/01/04 13:05:47;;;;;;;;;;;;;;;;;;5067177;28;19960;-72
2024/01/04 13:08:14;;;;;;;;;;;;;;;;;;5059824;28;19931;-71
2024/01/04 13:10:41;;;;;;;;;;;;;;;;;;5163727;22;20399;-72
2024/01/04 13:13:08;;;;;;;;;;;;;;;;;;5047391;28;19929;-71
2024/01/04 13:15:36;;;;;;;;;;;;;;;;;;5046030;28;19979;-72
2024/01/04 13:18:04;;;;;;;;;;;;;;;;;;5043516;28;19979;-70
2024/01/04 13:20:31;;;;;;;;;;;;;;;;;;5042923;28;19932;-71
2024/01/04 13:22:58;;;;;;;;;;;;;;;;;;5042903;28;19933;-71
2024/01/04 13:25:25;;;;;;;;;;;;;;;;;;5044391;28;19929;-70
2024/01/04 13:27:52;;;;;;;;;;;;;;;;;;5044684;28;19933;-70
2024/01/04 13:30:20;;;;;;;;;;;;;;;;;;5046063;28;19951;-71
2024/01/04 13:32:47;;;;;;;;;;;;;;;;;;5047958;28;19988;-71
2024/01/04 13:35:14;;;;;;;;;;;;;;;;;;5046983;28;19978;-71
2024/01/04 13:37:41;;;;;;;;;;;;;;;;;;5046074;28;20358;-72
2024/01/04 13:40:09;;;;;;;;;;;;;;;;;;5045268;28;20288;-72
2024/01/04 13:42:36;;;;;;;;;;;;;;;;;;5040212;28;19928;-70
2024/01/04 13:45:03;;;;;;;;;;;;;;;;;;5044242;28;20094;-71
2024/01/04 13:47:30;;;;;;;;;;;;;;;;;;5048536;28;20456;-70
2024/01/04 13:49:58;;;;;;;;;;;;;;;;;;5050221;28;19929;-70
2024/01/04 13:52:25;;;;;;;;;;;;;;;;;;5042098;28;19925;-70
2024/01/04 13:54:52;;;;;;;;;;;;;;;;;;5041063;28;20414;-72
2024/01/04 13:57:19;;;;;;;;;;;;;;;;;;5047258;28;19928;-71
2024/01/04 13:59:46;;;;;;;;;;;;;;;;;;5045857;28;19925;-71
2024/01/04 14:02:15;;;;;;;;;;;;;;;;;;5043461;28;19956;-71
2024/01/04 14:04:42;;;;;;;;;;;;;;;;;;5049112;28;19931;-72
2024/01/04 14:07:10;;;;;;;;;;;;;;;;;;5048342;28;19932;-72
2024/01/04 14:09:37;;;;;;;;;;;;;;;;;;5048250;28;19944;-71
2024/01/04 14:12:05;;;;;;;;;;;;;;;;;;5041111;28;19933;-72
2024/01/04 14:14:32;;;;;;;;;;;;;;;;;;5044831;28;19925;-72
2024/01/04 14:17:00;;;;;;;;;;;;;;;;;;5050924;28;20452;-72
2024/01/04 14:19:26;;;;;;;;;;;;;;;;;;5046234;28;19932;-72
2024/01/04 14:21:54;;;;;;;;;;;;;;;;;;5047759;28;20323;-71
2024/01/04 14:24:21;;;;;;;;;;;;;;;;;;5043357;28;19929;-72
2024/01/04 14:26:50;;;;;;;;;;;;;;;;;;5040735;28;20553;-72
2024/01/04 14:29:17;;;;;;;;;;;;;;;;;;5047401;28;19933;-72
2024/01/04 14:31:46;;;;;;;;;;;;;;;;;;5044134;28;19932;-73
2024/01/04 14:34:13;;;;;;;;;;;;;;;;;;5039130;28;19972;-72
2024/01/04 14:36:41;;;;;;;;;;;;;;;;;;5048504;28;20119;-70
2024/01/04 14:39:09;;;;;;;;;;;;;;;;;;5047524;28;19957;-70
2024/01/04 14:41:37;;;;;;;;;;;;;;;;;;5038898;28;19933;-70
2024/01/04 14:44:04;;;;;;;;;;;;;;;;;;5047653;28;20439;-65
2024/01/04 14:46:31;;;;;;;;;;;;;;;;;;5065102;28;19933;-71
2024/01/04 14:48:58;;;;;;;;;;;;;;;;;;5051484;28;19924;-70
2024/01/04 14:51:26;;;;;;;;;;;;;;;;;;5052465;28;19928;-71
2024/01/04 14:53:53;;;;;;;;;;;;;;;;;;5050485;28;19997;-71
2024/01/04 14:56:21;;;;;;;;;;;;;;;;;;5048905;28;20035;-71
2024/01/04 14:58:48;;;;;;;;;;;;;;;;;;5047938;28;19925;-69
2024/01/04 15:01:16;;;;;;;;;;;;;;;;;;5049932;28;19924;-71
2024/01/04 15:03:43;;;;;;;;;;;;;;;;;;5046871;28;19924;-71
2024/01/04 15:06:11;;;;;;;;;;;;;;;;;;5048259;28;20429;-70
2024/01/04 15:08:38;;;;;;;;;;;;;;;;;;5050894;28;19925;-70
2024/01/04 15:11:06;;;;;;;;;;;;;;;;;;5047724;28;19931;-69
2024/01/04 15:13:33;;;;;;;;;;;;;;;;;;5045406;28;20439;-69
2024/01/04 15:16:00;;;;;;;;;;;;;;;;;;5047205;28;20383;-72
2024/01/04 15:18:27;;;;;;;;;;;;;;;;;;5045433;28;19924;-72
2024/01/04 15:20:54;;;;;;;;;;;;;;;;;;5052824;28;19925;-72
2024/01/04 15:23:21;;;;;;;;;;;;;;;;;;5052725;28;19932;-72
2024/01/04 15:25:48;;;;;;;;;;;;;;;;;;5060065;22;19976;-72
2024/01/04 15:28:15;;;;;;;;;;;;;;;;;;5065532;28;19994;-72
2024/01/04 15:30:42;;;;;;;;;;;;;;;;;;5068303;28;20387;-70
2024/01/04 15:33:10;;;;;;;;;;;;;;;;;;5049032;28;20008;-70
2024/01/04 15:35:37;;;;;;;;;;;;;;;;;;5049476;28;19925;-72
2024/01/04 15:38:04;;;;;;;;;;;;;;;;;;5043306;28;19929;-71
2024/01/04 15:40:31;;;;;;;;;;;;;;;;;;5045230;28;19925;-71
2024/01/04 15:42:59;;;;;;;;;;;;;;;;;;5053888;28;20062;-72
2024/01/04 15:45:26;;;;;;;;;;;;;;;;;;5048114;22;19933;-71
2024/01/04 15:47:55;;;;;;;;;;;;;;;;;;5055149;28;19925;-70
2024/01/04 15:50:24;;;;;;;;;;;;;;;;;;5068072;28;19925;-70
2024/01/04 15:52:51;;;;;;;;;;;;;;;;;;5061062;28;19964;-71
2024/01/04 15:55:20;;;;;;;;;;;;;;;;;;5063034;28;19925;-71
2024/01/04 15:57:47;;;;;;;;;;;;;;;;;;5062324;28;19932;-71
2024/01/04 16:00:14;;;;;;;;;;;;;;;;;;5064167;28;19924;-69
2024/01/04 16:02:42;;;;;;;;;;;;;;;;;;5058104;28;19971;-70
2024/01/04 16:05:10;;;;;;;;;;;;;;;;;;5061839;28;19924;-69
2024/01/04 16:07:37;;;;;;;;;;;;;;;;;;5064475;28;20334;-70
2024/01/04 16:10:05;;;;;;;;;;;;;;;;;;5061958;28;19936;-70
2024/01/04 16:12:33;;;;;;;;;;;;;;;;;;5067555;28;20292;-71
2024/01/04 16:15:01;;;;;;;;;;;;;;;;;;5065128;28;20473;-71
2024/01/04 16:17:28;;;;;;;;;;;;;;;;;;5068596;28;19925;-70
2024/01/04 16:19:55;;;;;;;;;;;;;;;;;;5064535;28;20344;-70
2024/01/04 16:22:22;;;;;;;;;;;;;;;;;;5073144;28;19933;-71
2024/01/04 16:24:49;;;;;;;;;;;;;;;;;;5057971;28;19928;-71
2024/01/04 16:27:16;;;;;;;;;;;;;;;;;;5069040;28;19928;-70
2024/01/04 16:29:43;;;;;;;;;;;;;;;;;;5069489;28;19936;-71
2024/01/04 16:32:10;;;;;;;;;;;;;;;;;;5066332;28;19978;-71
2024/01/04 16:34:37;;;;;;;;;;;;;;;;;;5063992;28;19975;-72
2024/01/04 16:37:05;;;;;;;;;;;;;;;;;;5064066;28;20414;-71
2024/01/04 16:39:32;;;;;;;;;;;;;;;;;;5070016;28;19925;-72
2024/01/04 16:42:00;;;;;;;;;;;;;;;;;;5075901;22;19925;-72
2024/01/04 16:44:27;;;;;;;;;;;;;;;;;;5067475;28;20445;-71